Terminal Aerodrome Forecast
Issued by NWS Raleigh/Durham, NC

Home | Current Version | Previous Version | Text Only | Print | Product List | Glossary On
Versions: 1 2 3 4 5 6 7 8 9 10 11 12 13 14 15 16 17 18 19 20 21 22 23 24 25 26 27 28 29 30 31 32 33 34 35 36 37 38 39 40 41 42 43 44 45 46 47 48 49 50
000
FTUS42 KRAH 260844 AAB
TAFRDU
TAF AMD
KRDU 260844Z 2609/2706 02010G18KT 3SM RA BR OVC004
      TEMPO 2609/2611 1 1/2SM +RA BR OVC002
     FM261100 02015G30KT 2SM +RA OVC008
     FM261500 33015G28KT 5SM -RA BR SCT015 OVC035
     FM262000 35013G23KT P6SM -RA OVC040=

USA.gov is the U.S. government's official web portal to all federal, state and local government web resources and services.